Time;durP1;ratioP1;P1;durP2;ratioP2;P2;SDS_P1;SDS_P2;PMS_P1;PMS_P2;Temp;Humidity;BMP_temperature;BMP_pressure;BME280_temperature;BME280_humidity;BME280_pressure;Samples;Min_cycle;Max_cycle;Signal;HPM_P1;HPM_P2
2022/03/23 00:01:47;;;;;;;18.07;13.70;;;8.30;99.90;;;;;;4914048;29;20237;-61
2022/03/23 00:04:15;;;;;;;20.83;16.53;;;8.20;99.90;;;;;;4914237;29;20236;-60
2022/03/23 00:06:44;;;;;;;21.87;15.10;;;8.10;99.90;;;;;;4914283;29;20600;-60
2022/03/23 00:09:14;;;;;;;17.97;13.10;;;8.00;99.90;;;;;;4922629;29;20303;-59
2022/03/23 00:11:42;;;;;;;19.23;14.17;;;8.00;99.90;;;;;;4921904;29;20240;-60
2022/03/23 00:14:11;;;;;;;17.33;13.70;;;8.00;99.90;;;;;;4914297;29;20336;-59
2022/03/23 00:16:40;;;;;;;20.23;17.23;;;8.10;99.90;;;;;;4914083;29;20315;-60
2022/03/23 00:19:08;;;;;;;20.17;15.43;;;8.00;99.90;;;;;;4914095;29;20237;-60
2022/03/23 00:21:38;;;;;;;19.23;14.90;;;8.00;99.90;;;;;;4913998;29;20263;-60
2022/03/23 00:24:07;;;;;;;18.40;14.90;;;8.00;99.90;;;;;;4921772;29;20299;-59
2022/03/23 00:26:35;;;;;;;17.30;13.50;;;7.90;99.90;;;;;;4918019;29;20240;-59
2022/03/23 00:29:04;;;;;;;18.57;14.00;;;7.90;99.90;;;;;;4908527;29;20372;-61
2022/03/23 00:31:32;;;;;;;17.87;13.33;;;7.80;99.90;;;;;;4937217;29;20704;-60
2022/03/23 00:34:01;;;;;;;18.97;14.33;;;7.90;99.90;;;;;;4929485;29;20788;-59
2022/03/23 00:36:29;;;;;;;18.30;15.17;;;7.90;99.90;;;;;;4917813;29;20244;-60
2022/03/23 00:38:58;;;;;;;19.50;15.50;;;7.90;99.90;;;;;;4917517;29;20244;-60
2022/03/23 00:41:26;;;;;;;19.97;16.10;;;7.60;99.90;;;;;;4916677;29;20244;-60
2022/03/23 00:43:55;;;;;;;19.93;14.73;;;7.60;99.90;;;;;;4923932;29;20239;-59
2022/03/23 00:46:24;;;;;;;17.87;14.13;;;7.60;99.90;;;;;;4919669;29;20323;-59
2022/03/23 00:48:55;;;;;;;21.93;14.23;;;7.70;99.90;;;;;;4913156;29;20260;-60
2022/03/23 00:51:24;;;;;;;19.73;15.30;;;7.60;99.90;;;;;;4936580;29;20287;-60
2022/03/23 00:53:52;;;;;;;15.50;12.53;;;7.50;99.90;;;;;;4936362;29;20759;-59
2022/03/23 00:56:20;;;;;;;20.53;15.13;;;7.70;99.90;;;;;;4922240;29;20660;-59
2022/03/23 00:58:48;;;;;;;19.87;14.57;;;7.70;99.90;;;;;;4900470;29;20772;-60
2022/03/23 01:01:17;;;;;;;20.57;15.60;;;7.60;99.90;;;;;;4900572;29;20300;-59
2022/03/23 01:03:45;;;;;;;19.10;14.20;;;7.50;99.90;;;;;;4922064;29;20239;-60
2022/03/23 01:06:13;;;;;;;19.93;15.90;;;7.60;99.90;;;;;;4915144;29;20232;-59
2022/03/23 01:08:42;;;;;;;19.93;16.47;;;7.50;99.90;;;;;;4921323;29;20335;-60
2022/03/23 01:11:11;;;;;;;18.27;13.27;;;7.50;99.90;;;;;;4919387;29;20243;-60
2022/03/23 01:13:39;;;;;;;16.87;13.23;;;7.50;99.90;;;;;;4936061;29;20587;-60
2022/03/23 01:16:10;;;;;;;18.93;13.80;;;7.60;99.90;;;;;;4918956;29;20244;-60
2022/03/23 01:18:39;;;;;;;24.83;16.43;;;7.60;99.90;;;;;;4930858;29;20320;-60
2022/03/23 01:21:07;;;;;;;17.70;14.07;;;7.50;99.90;;;;;;4916136;29;20600;-59
2022/03/23 01:23:39;;;;;;;19.63;15.50;;;7.30;99.90;;;;;;4916831;29;20816;-60
2022/03/23 01:26:09;;;;;;;16.43;12.80;;;7.20;99.90;;;;;;4900078;29;20724;-60
2022/03/23 01:28:37;;;;;;;17.67;14.40;;;7.30;99.90;;;;;;4920679;29;20270;-60
2022/03/23 01:31:06;;;;;;;15.90;12.77;;;7.20;99.90;;;;;;4919067;29;20573;-60
2022/03/23 01:33:34;;;;;;;19.37;14.70;;;7.20;99.90;;;;;;4935547;29;20327;-60
2022/03/23 01:36:02;;;;;;;18.97;15.27;;;7.20;99.90;;;;;;4919342;29;20244;-59
2022/03/23 01:38:31;;;;;;;19.93;15.63;;;7.00;99.90;;;;;;4935703;29;20250;-60
2022/03/23 01:40:59;;;;;;;18.57;14.57;;;6.90;99.90;;;;;;4935676;29;20239;-60
2022/03/23 01:43:29;;;;;;;18.90;14.70;;;7.00;99.90;;;;;;4934408;29;20275;-59
2022/03/23 01:45:57;;;;;;;16.53;13.47;;;7.00;99.90;;;;;;4935349;29;20248;-60
2022/03/23 01:48:25;;;;;;;25.23;16.87;;;7.00;99.90;;;;;;4929118;29;20992;-60
2022/03/23 01:50:56;;;;;;;19.20;14.80;;;7.00;99.90;;;;;;4935654;29;20248;-59
2022/03/23 01:53:24;;;;;;;23.70;17.47;;;7.00;99.90;;;;;;4935512;29;20255;-60
2022/03/23 01:55:53;;;;;;;22.43;17.03;;;6.90;99.90;;;;;;4921835;29;20244;-60
2022/03/23 01:58:21;;;;;;;18.90;14.83;;;6.70;99.90;;;;;;4915184;29;20237;-60
2022/03/23 02:00:51;;;;;;;22.40;16.20;;;6.80;99.90;;;;;;4899195;29;20244;-60
2022/03/23 02:03:19;;;;;;;20.03;14.90;;;6.70;99.90;;;;;;4911668;29;20681;-60
2022/03/23 02:05:49;;;;;;;22.87;15.57;;;6.80;99.90;;;;;;4880918;29;20294;-60
2022/03/23 02:08:19;;;;;;;19.30;14.63;;;6.80;99.90;;;;;;4898494;29;20267;-60
2022/03/23 02:10:51;;;;;;;22.87;17.30;;;6.90;99.90;;;;;;4899436;29;20236;-59
2022/03/23 02:13:28;;;;;;;19.80;15.23;;;6.90;99.90;;;;;;4902121;29;20700;-60
2022/03/23 02:16:01;;;;;;;20.13;15.00;;;6.80;99.90;;;;;;4918377;29;20239;-59
2022/03/23 02:18:31;;;;;;;21.17;15.43;;;6.90;99.90;;;;;;4913866;29;20327;-60
2022/03/23 02:21:00;;;;;;;23.53;18.47;;;6.90;99.90;;;;;;4899324;29;20244;-59
2022/03/23 02:23:30;;;;;;;20.27;15.97;;;6.80;99.90;;;;;;4914941;29;20709;-60
2022/03/23 02:26:02;;;;;;;23.70;16.20;;;6.70;99.90;;;;;;4916172;29;20355;-59
2022/03/23 02:28:30;;;;;;;26.43;18.93;;;6.60;99.90;;;;;;4916054;29;20300;-59
2022/03/23 02:30:59;;;;;;;23.87;18.50;;;6.40;99.90;;;;;;4916105;29;20589;-59
2022/03/23 02:33:28;;;;;;;24.83;18.17;;;6.30;99.90;;;;;;4918517;29;20600;-60
2022/03/23 02:35:56;;;;;;;24.73;16.07;;;6.30;99.90;;;;;;4934921;29;20236;-59
2022/03/23 02:38:24;;;;;;;21.70;16.40;;;6.50;99.90;;;;;;4932400;29;20294;-60
2022/03/23 02:40:54;;;;;;;25.83;17.57;;;6.60;99.90;;;;;;4915622;29;20245;-59
2022/03/23 02:43:22;;;;;;;24.27;18.47;;;6.50;99.90;;;;;;4917550;29;20328;-60
2022/03/23 02:45:50;;;;;;;27.10;19.23;;;6.60;99.90;;;;;;4934684;29;20239;-60
2022/03/23 02:48:18;;;;;;;22.50;15.80;;;6.50;99.90;;;;;;4926323;29;20708;-60
2022/03/23 02:50:46;;;;;;;18.97;13.93;;;6.60;99.90;;;;;;4915036;29;20244;-60
2022/03/23 03:01:53;;;;;;;21.77;16.77;;;6.20;99.90;;;;;;4914710;29;20245;-59
2022/03/23 03:04:23;;;;;;;19.93;15.87;;;6.00;99.90;;;;;;4924880;29;20644;-60
2022/03/23 03:06:51;;;;;;;19.83;14.57;;;6.00;99.90;;;;;;4934208;29;20244;-60
2022/03/23 03:09:20;;;;;;;17.53;12.70;;;6.00;99.90;;;;;;4927654;29;20764;-59
2022/03/23 03:11:50;;;;;;;19.97;14.83;;;6.10;99.90;;;;;;4933973;29;20692;-60
2022/03/23 03:14:18;;;;;;;17.77;13.67;;;6.00;99.90;;;;;;4933859;29;20745;-60
2022/03/23 03:16:46;;;;;;;16.77;12.63;;;5.90;99.90;;;;;;4933788;29;20238;-60
2022/03/23 03:19:14;;;;;;;15.67;12.63;;;6.00;99.90;;;;;;4924102;29;20245;-59
2022/03/23 03:21:43;;;;;;;16.37;12.43;;;5.90;99.90;;;;;;4914366;29;20229;-60
2022/03/23 03:24:11;;;;;;;21.23;13.80;;;5.80;99.90;;;;;;4923093;29;20777;-59
2022/03/23 03:26:39;;;;;;;16.93;12.20;;;5.80;99.90;;;;;;4933698;29;20239;-60
2022/03/23 03:29:09;;;;;;;18.20;14.67;;;6.00;99.90;;;;;;4927310;29;20239;-59
2022/03/23 03:31:37;;;;;;;18.10;14.30;;;5.90;99.90;;;;;;4933689;29;20239;-60
2022/03/23 03:34:05;;;;;;;19.23;14.40;;;5.80;99.90;;;;;;4933686;29;20243;-60
2022/03/23 03:36:33;;;;;;;15.77;13.20;;;5.70;99.90;;;;;;4933548;29;20768;-60
2022/03/23 03:39:01;;;;;;;18.60;13.80;;;5.80;99.90;;;;;;4934047;29;20244;-60
2022/03/23 03:41:29;;;;;;;19.47;14.53;;;5.80;99.90;;;;;;4933806;29;20243;-60
2022/03/23 03:43:58;;;;;;;21.83;14.20;;;5.80;99.90;;;;;;4926955;29;20244;-59
2022/03/23 03:46:27;;;;;;;18.03;13.03;;;5.70;99.90;;;;;;4914351;29;20259;-60
2022/03/23 03:48:57;;;;;;;18.90;14.77;;;5.70;99.90;;;;;;4925948;29;20294;-60
2022/03/23 03:51:25;;;;;;;20.93;16.00;;;5.70;99.90;;;;;;4931255;29;20232;-59
2022/03/23 03:53:53;;;;;;;16.37;13.00;;;5.70;99.90;;;;;;4914533;29;20247;-59
2022/03/23 03:56:21;;;;;;;17.23;13.63;;;5.60;99.90;;;;;;4914496;29;20654;-60
2022/03/23 03:58:49;;;;;;;17.47;13.53;;;5.70;99.90;;;;;;4919820;29;20247;-60
2022/03/23 04:01:17;;;;;;;16.37;13.70;;;5.60;99.90;;;;;;4932551;29;20240;-60
2022/03/23 04:03:47;;;;;;;19.00;14.10;;;5.60;99.90;;;;;;4927710;29;20366;-59
2022/03/23 04:06:15;;;;;;;21.43;16.47;;;5.70;99.90;;;;;;4914350;29;20240;-59
2022/03/23 04:08:43;;;;;;;20.17;14.73;;;5.60;99.90;;;;;;4918751;29;20338;-59
2022/03/23 04:11:11;;;;;;;17.40;13.47;;;5.60;99.90;;;;;;4933385;29;20598;-60
2022/03/23 04:13:39;;;;;;;17.43;13.07;;;5.50;99.90;;;;;;4933051;29;20250;-59
2022/03/23 04:16:08;;;;;;;19.60;13.87;;;5.60;99.90;;;;;;4922540;29;20236;-59
2022/03/23 04:18:36;;;;;;;15.70;13.27;;;5.60;99.90;;;;;;4918454;29;20243;-60
2022/03/23 04:21:05;;;;;;;19.87;15.40;;;5.60;99.90;;;;;;4929323;29;20240;-59
2022/03/23 04:23:35;;;;;;;18.23;14.67;;;5.50;99.90;;;;;;4917352;29;20243;-59
2022/03/23 04:26:03;;;;;;;20.77;14.23;;;5.50;99.90;;;;;;4933201;29;20246;-61
2022/03/23 04:28:32;;;;;;;18.20;14.50;;;5.40;99.90;;;;;;4926974;29;20271;-61
2022/03/23 04:31:01;;;;;;;19.50;14.47;;;5.40;99.90;;;;;;4933361;29;20330;-59
2022/03/23 04:33:29;;;;;;;21.13;15.63;;;5.60;99.90;;;;;;4933000;29;20243;-60
2022/03/23 04:35:57;;;;;;;21.33;14.77;;;5.70;99.90;;;;;;4933355;29;20247;-60
2022/03/23 04:38:27;;;;;;;23.50;15.73;;;5.60;99.90;;;;;;4932688;29;20450;-59
2022/03/23 04:40:56;;;;;;;23.03;16.63;;;5.60;99.90;;;;;;4932981;29;20592;-61
2022/03/23 04:43:24;;;;;;;23.27;17.40;;;5.60;99.90;;;;;;4932637;29;20239;-60
2022/03/23 04:45:52;;;;;;;23.20;17.03;;;5.40;99.90;;;;;;4932927;29;20255;-60
2022/03/23 04:48:21;;;;;;;21.67;15.63;;;5.30;99.90;;;;;;4926678;29;20712;-60
2022/03/23 04:50:49;;;;;;;23.03;16.30;;;5.50;99.90;;;;;;4930930;29;20666;-60
2022/03/23 04:53:18;;;;;;;25.50;17.43;;;5.40;99.90;;;;;;4914158;29;20244;-59
2022/03/23 04:55:47;;;;;;;22.87;16.07;;;5.40;99.90;;;;;;4913821;29;20248;-60
2022/03/23 04:58:15;;;;;;;24.13;18.30;;;5.40;99.90;;;;;;4914847;29;20244;-59
2022/03/23 05:00:43;;;;;;;21.10;15.10;;;5.20;99.90;;;;;;4932633;29;20263;-59
2022/03/23 05:03:13;;;;;;;26.90;17.73;;;5.20;99.90;;;;;;4932001;29;20260;-60
2022/03/23 05:05:43;;;;;;;20.63;16.30;;;5.30;99.90;;;;;;4913700;29;20245;-59
2022/03/23 05:08:12;;;;;;;20.93;16.23;;;5.30;99.90;;;;;;4913709;29;20248;-59
2022/03/23 05:10:40;;;;;;;21.83;15.03;;;5.20;99.90;;;;;;4913690;29;20317;-59
2022/03/23 05:13:09;;;;;;;23.73;16.77;;;5.30;99.90;;;;;;4916163;29;20615;-59
2022/03/23 05:15:38;;;;;;;20.67;14.97;;;5.30;99.90;;;;;;4936121;29;20247;-59
2022/03/23 05:18:08;;;;;;;21.30;16.10;;;5.40;99.90;;;;;;4936050;29;20251;-59
2022/03/23 05:20:36;;;;;;;25.47;18.40;;;5.40;99.90;;;;;;4936041;29;20637;-60
2022/03/23 05:23:04;;;;;;;22.57;16.03;;;5.40;99.90;;;;;;4916976;29;20327;-59
2022/03/23 05:25:32;;;;;;;22.63;18.03;;;5.20;99.90;;;;;;4917074;29;20244;-61
2022/03/23 05:28:00;;;;;;;24.40;17.33;;;5.10;99.90;;;;;;4917300;29;20492;-59
2022/03/23 05:30:30;;;;;;;21.67;17.30;;;5.00;99.90;;;;;;4917166;29;20960;-59
2022/03/23 05:32:58;;;;;;;24.27;17.80;;;5.10;99.90;;;;;;4917107;29;20488;-59
2022/03/23 05:35:26;;;;;;;23.50;16.50;;;5.10;99.90;;;;;;4934711;29;20497;-60
2022/03/23 05:37:55;;;;;;;21.13;15.80;;;4.90;99.90;;;;;;4935729;29;20239;-59
2022/03/23 05:40:23;;;;;;;22.23;15.67;;;5.10;99.90;;;;;;4917795;29;20283;-59
2022/03/23 05:42:52;;;;;;;21.83;16.07;;;5.00;99.90;;;;;;4916739;29;20333;-59
2022/03/23 05:45:24;;;;;;;23.83;15.43;;;5.10;99.90;;;;;;4916668;29;20765;-59
2022/03/23 05:47:53;;;;;;;22.80;17.33;;;5.20;99.90;;;;;;4916609;29;20321;-59
2022/03/23 05:50:22;;;;;;;20.70;14.63;;;5.10;99.90;;;;;;4934419;29;20268;-59
2022/03/23 05:52:50;;;;;;;21.03;14.83;;;5.20;99.90;;;;;;4918562;29;20597;-59
2022/03/23 05:55:18;;;;;;;21.67;14.97;;;5.20;99.90;;;;;;4916518;29;20788;-59
2022/03/23 05:57:46;;;;;;;18.97;15.00;;;5.40;99.90;;;;;;4916238;29;20258;-59
2022/03/23 06:00:15;;;;;;;22.33;16.97;;;5.50;99.90;;;;;;4916398;29;20359;-59
2022/03/23 06:02:48;;;;;;;20.37;15.60;;;5.50;99.90;;;;;;4916313;29;20248;-59
2022/03/23 06:05:18;;;;;;;23.10;17.23;;;5.50;99.90;;;;;;4916355;29;20755;-59
2022/03/23 06:07:46;;;;;;;23.33;17.43;;;5.60;99.90;;;;;;4916020;29;20686;-59
2022/03/23 06:10:14;;;;;;;25.13;17.43;;;5.50;99.90;;;;;;4932992;29;20323;-59
2022/03/23 06:12:42;;;;;;;23.47;17.20;;;5.70;99.90;;;;;;4934895;29;20701;-59
2022/03/23 06:15:11;;;;;;;22.30;17.73;;;5.80;99.90;;;;;;4918871;29;20620;-59
2022/03/23 06:17:40;;;;;;;23.90;17.43;;;5.80;99.90;;;;;;4915802;29;20245;-59
2022/03/23 06:20:09;;;;;;;23.07;17.20;;;5.80;99.90;;;;;;4932627;29;20299;-59
2022/03/23 06:22:38;;;;;;;24.03;17.93;;;5.80;99.90;;;;;;4919836;29;20239;-61
2022/03/23 06:25:09;;;;;;;23.23;17.93;;;6.00;99.90;;;;;;4911816;29;20255;-59
2022/03/23 06:27:38;;;;;;;23.93;16.67;;;6.10;99.90;;;;;;4915641;29;20244;-59
2022/03/23 06:30:08;;;;;;;23.83;18.73;;;6.20;99.90;;;;;;4931195;29;20892;-59
2022/03/23 06:32:36;;;;;;;30.07;20.13;;;6.30;99.90;;;;;;4934698;29;20326;-60
2022/03/23 06:35:05;;;;;;;25.70;19.73;;;6.80;99.90;;;;;;4933612;29;20299;-59
2022/03/23 06:37:34;;;;;;;24.33;19.83;;;6.80;99.90;;;;;;4915556;29;20326;-59
2022/03/23 06:40:05;;;;;;;27.93;20.17;;;6.70;99.90;;;;;;4930774;29;20249;-59
2022/03/23 06:42:33;;;;;;;24.93;19.50;;;6.80;99.90;;;;;;4933985;29;20235;-60
2022/03/23 06:45:02;;;;;;;26.47;19.73;;;7.00;99.90;;;;;;4934905;29;20696;-60
2022/03/23 06:47:30;;;;;;;26.90;18.30;;;7.00;99.90;;;;;;4931845;29;20258;-60
2022/03/23 06:49:58;;;;;;;26.43;21.30;;;7.40;99.90;;;;;;4930097;29;20278;-59
2022/03/23 06:52:32;;;;;;;25.57;18.93;;;7.60;99.90;;;;;;4934528;29;20925;-60
2022/03/23 06:55:00;;;;;;;24.90;19.37;;;7.90;99.90;;;;;;4934171;29;20258;-60
2022/03/23 06:57:29;;;;;;;24.13;18.40;;;8.10;99.90;;;;;;4928041;29;20280;-59
2022/03/23 06:59:58;;;;;;;24.67;18.80;;;8.10;99.90;;;;;;4920893;29;20632;-60
2022/03/23 07:02:26;;;;;;;21.97;18.43;;;8.20;99.90;;;;;;4922173;29;20240;-59
2022/03/23 07:04:54;;;;;;;28.30;18.13;;;8.30;99.90;;;;;;4916654;29;20244;-60
2022/03/23 07:07:22;;;;;;;23.53;17.77;;;8.30;99.90;;;;;;4915893;29;20263;-60
2022/03/23 07:09:49;;;;;;;27.27;18.70;;;8.40;99.90;;;;;;4918886;29;20243;-60
2022/03/23 07:12:20;;;;;;;24.83;17.80;;;8.50;99.90;;;;;;4917925;29;20252;-59
2022/03/23 07:14:49;;;;;;;23.87;18.27;;;8.60;99.90;;;;;;4918674;29;20596;-60
2022/03/23 07:17:18;;;;;;;23.90;18.23;;;8.70;99.90;;;;;;4919158;29;20249;-60
2022/03/23 07:19:46;;;;;;;25.30;17.87;;;8.90;99.90;;;;;;4917447;29;20241;-59
2022/03/23 07:22:15;;;;;;;22.60;17.70;;;9.00;99.90;;;;;;4919077;29;20255;-60
2022/03/23 07:24:43;;;;;;;22.93;18.30;;;9.20;99.90;;;;;;4915337;29;20252;-61
2022/03/23 07:27:12;;;;;;;22.20;18.10;;;9.50;99.90;;;;;;4917189;29;20594;-59
2022/03/23 07:29:49;;;;;;;24.20;17.60;;;9.70;99.90;;;;;;4917079;29;20314;-60
2022/03/23 07:32:17;;;;;;;23.60;19.27;;;10.00;99.90;;;;;;4918514;29;20240;-60
2022/03/23 07:34:45;;;;;;;24.40;19.33;;;10.20;99.90;;;;;;4916404;29;20728;-61
2022/03/23 07:37:13;;;;;;;23.17;18.93;;;10.60;99.90;;;;;;4918345;29;21684;-60
2022/03/23 07:39:41;;;;;;;22.40;18.27;;;10.90;99.90;;;;;;4921375;29;20255;-59
2022/03/23 07:42:10;;;;;;;23.40;18.37;;;11.20;99.90;;;;;;4917288;29;20253;-60
2022/03/23 07:44:38;;;;;;;24.33;18.43;;;11.30;99.90;;;;;;4915050;29;20608;-60
2022/03/23 07:47:11;;;;;;;24.60;18.80;;;11.30;99.90;;;;;;4915085;29;20262;-60
2022/03/23 07:49:39;;;;;;;30.60;19.10;;;11.40;99.90;;;;;;4916350;29;20308;-60
2022/03/23 07:52:08;;;;;;;26.10;19.67;;;11.50;99.90;;;;;;4918822;29;21083;-61
2022/03/23 07:54:36;;;;;;;20.47;18.27;;;11.50;99.90;;;;;;4920541;29;20671;-60
2022/03/23 07:57:05;;;;;;;25.33;19.33;;;11.50;99.90;;;;;;4921343;29;20264;-60
2022/03/23 07:59:34;;;;;;;24.70;19.93;;;11.60;99.90;;;;;;4918390;29;20663;-60
2022/03/23 08:02:02;;;;;;;25.53;19.23;;;11.70;99.90;;;;;;4917672;29;20621;-59
2022/03/23 08:04:32;;;;;;;23.37;19.43;;;11.90;99.90;;;;;;4918906;29;20254;-60
2022/03/23 08:07:01;;;;;;;22.27;19.40;;;12.10;99.90;;;;;;4922206;29;20249;-59
2022/03/23 08:09:29;;;;;;;22.17;19.73;;;12.30;99.90;;;;;;4917337;29;20377;-59
2022/03/23 08:11:58;;;;;;;25.30;20.43;;;12.30;99.90;;;;;;4922900;29;20664;-59
2022/03/23 08:14:26;;;;;;;25.53;20.10;;;12.50;99.90;;;;;;4922251;29;20235;-60
2022/03/23 08:16:57;;;;;;;25.03;20.67;;;12.60;99.90;;;;;;4915462;29;20247;-59
2022/03/23 08:19:25;;;;;;;22.67;19.50;;;12.80;99.90;;;;;;4914932;29;20248;-59
2022/03/23 08:21:56;;;;;;;25.07;20.30;;;12.90;99.90;;;;;;4915402;29;20326;-60
2022/03/23 08:24:24;;;;;;;24.17;19.63;;;13.20;99.90;;;;;;4918247;29;20723;-60
2022/03/23 08:26:53;;;;;;;25.80;21.50;;;13.40;99.90;;;;;;4913298;29;20799;-60
2022/03/23 08:29:22;;;;;;;24.30;20.97;;;13.60;99.90;;;;;;4916622;29;20921;-60
2022/03/23 08:31:50;;;;;;;25.60;21.47;;;13.80;99.90;;;;;;4922699;29;20337;-60
2022/03/23 08:34:19;;;;;;;24.90;21.03;;;14.10;99.90;;;;;;4919562;29;20247;-61
2022/03/23 08:36:47;;;;;;;25.20;21.20;;;14.30;99.90;;;;;;4913706;29;20253;-60
2022/03/23 08:39:16;;;;;;;26.10;22.37;;;14.50;99.90;;;;;;4914818;29;20687;-60
2022/03/23 08:41:44;;;;;;;25.43;20.67;;;14.80;99.90;;;;;;4914885;29;20255;-60
2022/03/23 08:44:12;;;;;;;24.83;20.87;;;15.10;99.90;;;;;;4915007;29;20251;-60
2022/03/23 08:46:41;;;;;;;27.10;20.17;;;15.40;99.90;;;;;;4921561;29;20255;-60
2022/03/23 08:49:09;;;;;;;23.63;20.30;;;15.60;99.90;;;;;;4925089;29;20299;-60
2022/03/23 08:51:37;;;;;;;26.83;20.37;;;15.80;99.90;;;;;;4926183;29;20239;-60
2022/03/23 08:54:05;;;;;;;23.53;19.40;;;16.00;99.90;;;;;;4922684;29;20252;-60
2022/03/23 08:56:37;;;;;;;26.07;19.80;;;16.30;99.90;;;;;;4917109;29;20738;-60
2022/03/23 08:59:05;;;;;;;20.83;18.33;;;16.50;99.90;;;;;;4921302;29;20244;-60
2022/03/23 09:01:33;;;;;;;18.60;16.60;;;16.80;99.90;;;;;;4925717;29;20236;-61
2022/03/23 09:04:04;;;;;;;23.07;19.13;;;17.20;99.90;;;;;;4918303;29;20708;-60
2022/03/23 09:06:32;;;;;;;20.23;17.77;;;17.40;99.90;;;;;;4916772;29;20736;-61
2022/03/23 09:09:00;;;;;;;20.47;17.53;;;17.30;98.00;;;;;;4919462;29;20660;-60
2022/03/23 09:11:28;;;;;;;19.73;15.90;;;17.30;99.40;;;;;;4919135;29;20345;-59
2022/03/23 09:13:58;;;;;;;19.93;16.20;;;17.50;96.80;;;;;;4923441;29;20335;-60
2022/03/23 09:16:26;;;;;;;18.40;15.63;;;17.70;97.20;;;;;;4922491;29;20242;-60
2022/03/23 09:18:55;;;;;;;18.97;15.10;;;17.70;94.30;;;;;;4917913;29;20657;-60
2022/03/23 09:21:23;;;;;;;16.27;14.30;;;17.80;93.90;;;;;;4918136;29;20907;-60
2022/03/23 09:23:51;;;;;;;14.97;12.83;;;17.70;91.30;;;;;;4917983;29;20233;-59
2022/03/23 09:26:19;;;;;;;14.47;12.87;;;17.70;87.40;;;;;;4922150;29;20249;-60
2022/03/23 09:28:48;;;;;;;15.23;13.40;;;17.70;90.20;;;;;;4921442;29;20720;-59
2022/03/23 09:31:17;;;;;;;15.33;13.23;;;17.80;88.10;;;;;;4925122;29;20616;-60
2022/03/23 09:33:48;;;;;;;17.07;14.13;;;17.80;88.00;;;;;;4924951;29;20244;-60
2022/03/23 09:37:47;;;;;;;14.63;13.13;;;17.90;85.00;;;;;;4919321;29;20244;-60
2022/03/23 09:39:12;;;;;;;15.10;13.60;;;18.20;86.00;;;;;;4920373;29;20248;-60
2022/03/23 09:41:41;;;;;;;15.17;13.57;;;18.20;81.60;;;;;;4917544;29;20238;-60
2022/03/23 09:44:09;;;;;;;16.03;14.33;;;18.30;82.80;;;;;;4917455;29;20245;-60
2022/03/23 09:46:39;;;;;;;15.77;14.13;;;18.30;78.90;;;;;;4922961;29;20704;-60
2022/03/23 09:49:08;;;;;;;16.73;13.87;;;18.30;79.90;;;;;;4920047;29;20305;-60
2022/03/23 09:51:39;;;;;;;15.57;13.47;;;18.50;78.50;;;;;;4917476;29;20714;-60
2022/03/23 09:54:07;;;;;;;16.57;14.87;;;18.60;76.70;;;;;;4917525;29;20289;-60
2022/03/23 09:56:35;;;;;;;15.73;13.93;;;18.80;80.50;;;;;;4922606;29;20620;-60
2022/03/23 09:59:04;;;;;;;15.57;13.80;;;18.80;79.00;;;;;;4923548;29;20277;-60
2022/03/23 10:02:09;;;;;;;19.43;14.10;;;18.70;76.20;;;;;;4917459;29;20744;-60
2022/03/23 10:05:28;;;;;;;16.97;15.17;;;18.90;78.10;;;;;;4902240;29;20259;-60
2022/03/23 10:08:19;;;;;;;19.73;14.77;;;19.00;80.20;;;;;;4923067;29;20273;-60
2022/03/23 10:11:26;;;;;;;18.33;15.67;;;19.20;77.30;;;;;;4924898;29;20726;-60
2022/03/23 10:14:46;;;;;;;19.57;15.50;;;19.30;76.10;;;;;;4921795;29;20253;-60
2022/03/23 10:17:43;;;;;;;20.23;16.87;;;19.40;76.10;;;;;;4916092;29;20271;-59
2022/03/23 10:20:12;;;;;;;19.10;16.90;;;19.30;73.20;;;;;;4922769;29;20344;-60
2022/03/23 10:22:46;;;;;;;19.97;17.03;;;19.50;75.20;;;;;;4924474;29;20241;-59
2022/03/23 10:25:17;;;;;;;20.17;16.03;;;19.50;74.80;;;;;;4922042;29;20606;-60
2022/03/23 10:27:45;;;;;;;21.23;16.13;;;19.20;76.10;;;;;;4917820;29;20945;-60
2022/03/23 10:30:15;;;;;;;19.13;16.10;;;19.30;75.50;;;;;;4924154;29;20310;-59
2022/03/23 10:32:44;;;;;;;17.83;15.20;;;19.10;75.50;;;;;;4924380;29;20278;-59
2022/03/23 10:35:13;;;;;;;20.87;18.00;;;19.00;76.20;;;;;;4923425;29;20286;-60
2022/03/23 10:37:43;;;;;;;19.83;16.17;;;19.10;75.80;;;;;;4916314;29;20249;-60
2022/03/23 10:40:18;;;;;;;20.40;15.93;;;19.20;77.30;;;;;;4923188;29;20331;-60
2022/03/23 10:42:51;;;;;;;25.53;16.63;;;19.60;78.90;;;;;;4916332;29;20247;-60
2022/03/23 10:45:20;;;;;;;21.50;17.03;;;19.10;76.40;;;;;;4918889;29;20267;-59
2022/03/23 10:47:50;;;;;;;24.57;18.03;;;19.20;77.90;;;;;;4922697;29;20416;-60
2022/03/23 10:50:20;;;;;;;25.93;18.67;;;19.20;77.50;;;;;;4917148;29;20652;-59
2022/03/23 10:52:55;;;;;;;22.60;16.87;;;19.20;77.50;;;;;;4916452;29;20235;-60
2022/03/23 10:55:26;;;;;;;25.10;17.77;;;19.70;79.00;;;;;;4922288;29;20805;-60
2022/03/23 10:58:25;;;;;;;22.07;16.70;;;20.10;77.30;;;;;;4916158;29;20387;-59
2022/03/23 11:01:03;;;;;;;23.97;17.17;;;19.80;76.60;;;;;;4916107;29;20261;-60
2022/03/23 11:03:36;;;;;;;25.13;17.30;;;19.80;77.80;;;;;;4924010;29;20607;-59
2022/03/23 11:06:06;;;;;;;22.53;16.33;;;19.70;76.90;;;;;;4914225;29;20687;-60
2022/03/23 11:08:34;;;;;;;24.77;17.63;;;19.80;78.20;;;;;;4916860;29;20337;-60
2022/03/23 11:16:39;;;;;;;22.90;16.67;;;20.00;78.10;;;;;;4917972;29;20325;-60
2022/03/23 11:19:14;;;;;;;20.77;16.90;;;19.80;77.50;;;;;;4916401;29;20282;-59
2022/03/23 11:22:00;;;;;;;22.73;18.10;;;19.90;79.10;;;;;;4915746;29;21255;-60
2022/03/23 11:24:30;;;;;;;26.90;17.63;;;20.10;77.40;;;;;;4920983;29;20247;-59
2022/03/23 11:27:00;;;;;;;21.10;17.03;;;20.40;78.70;;;;;;4914719;29;20255;-59
2022/03/23 11:29:32;;;;;;;24.13;18.00;;;20.60;76.90;;;;;;4917351;29;20247;-60
2022/03/23 11:32:04;;;;;;;20.53;17.27;;;20.90;76.40;;;;;;4915946;29;20283;-60
2022/03/23 11:34:34;;;;;;;21.53;16.53;;;20.80;75.50;;;;;;4918628;29;20255;-60
2022/03/23 11:37:04;;;;;;;22.27;17.00;;;20.80;74.50;;;;;;4920592;29;20251;-60
2022/03/23 11:39:32;;;;;;;20.83;16.87;;;20.90;73.40;;;;;;4922168;29;20254;-60
2022/03/23 11:42:03;;;;;;;21.43;15.50;;;20.70;73.90;;;;;;4915908;29;20283;-60
2022/03/23 11:44:31;;;;;;;24.17;16.97;;;20.60;75.00;;;;;;4915303;29;20248;-60
2022/03/23 11:47:05;;;;;;;23.83;16.37;;;20.20;73.80;;;;;;4922540;29;20330;-60
2022/03/23 11:49:40;;;;;;;19.77;15.90;;;19.80;76.60;;;;;;4921246;29;20249;-60
2022/03/23 11:52:27;;;;;;;21.00;15.50;;;20.10;78.80;;;;;;4916187;29;20244;-60
2022/03/23 11:58:17;;;;;;;20.10;14.73;;;20.00;78.60;;;;;;4915020;29;20244;-60
2022/03/23 12:00:50;;;;;;;22.73;14.83;;;20.20;78.60;;;;;;4914888;29;20723;-60
2022/03/23 12:03:50;;;;;;;20.27;14.47;;;20.10;79.00;;;;;;4922414;29;20238;-60
2022/03/23 12:06:20;;;;;;;21.10;14.13;;;19.80;79.90;;;;;;4921793;29;20244;-60
2022/03/23 12:08:50;;;;;;;22.93;14.37;;;19.80;79.30;;;;;;4921704;29;20247;-59
2022/03/23 12:11:38;;;;;;;20.90;14.73;;;19.60;79.10;;;;;;4914950;29;20637;-59
2022/03/23 12:14:18;;;;;;;18.80;13.73;;;19.20;80.80;;;;;;4917051;29;20257;-59
2022/03/23 12:17:12;;;;;;;21.80;14.87;;;19.20;80.20;;;;;;4931971;29;20737;-60
2022/03/23 12:20:08;;;;;;;17.93;13.70;;;19.00;80.60;;;;;;4931387;29;20782;-60
2022/03/23 12:23:08;;;;;;;20.73;13.20;;;18.90;82.90;;;;;;4932624;29;20254;-60
2022/03/23 12:25:44;;;;;;;19.20;13.87;;;19.10;82.20;;;;;;4917223;29;20247;-59
2022/03/23 12:28:29;;;;;;;19.87;13.93;;;19.10;81.70;;;;;;4918604;29;20259;-59
2022/03/23 12:31:09;;;;;;;21.77;14.20;;;19.10;83.10;;;;;;4936567;29;20241;-59
2022/03/23 12:34:03;;;;;;;17.70;12.83;;;19.20;83.80;;;;;;4925122;29;20245;-60
2022/03/23 12:39:30;;;;;;;22.33;13.70;;;18.80;84.30;;;;;;4929314;29;20328;-59
2022/03/23 12:41:59;;;;;;;20.90;13.80;;;18.90;83.90;;;;;;4931385;29;20699;-59
2022/03/23 12:44:33;;;;;;;18.97;13.80;;;18.90;84.00;;;;;;4933487;29;20243;-59
2022/03/23 12:47:12;;;;;;;18.27;11.90;;;18.80;84.60;;;;;;4931897;29;20329;-60
2022/03/23 12:58:09;;;;;;;19.30;12.33;;;19.10;85.30;;;;;;4936160;29;20242;-60
2022/03/23 13:00:40;;;;;;;16.87;12.20;;;18.90;84.90;;;;;;4928222;29;20279;-59
2022/03/23 13:03:50;;;;;;;17.07;12.40;;;18.40;85.10;;;;;;4935959;29;20359;-60
2022/03/23 13:06:31;;;;;;;21.57;11.30;;;18.60;85.40;;;;;;4922046;29;20256;-60
2022/03/23 13:08:59;;;;;;;22.23;13.67;;;18.60;84.80;;;;;;4922082;29;20249;-59
2022/03/23 13:11:30;;;;;;;22.63;14.10;;;18.70;84.80;;;;;;4917162;29;20346;-60
2022/03/23 13:13:59;;;;;;;21.40;13.83;;;18.90;85.10;;;;;;4917242;29;20262;-60
2022/03/23 13:16:30;;;;;;;21.77;15.40;;;19.00;84.50;;;;;;4916890;29;20240;-60
2022/03/23 13:19:00;;;;;;;19.57;14.53;;;19.00;80.00;;;;;;4924421;29;20692;-59
2022/03/23 13:21:31;;;;;;;17.63;14.03;;;18.80;79.30;;;;;;4936028;29;20250;-60